Time;durP1;ratioP1;P1;durP2;ratioP2;P2;SDS_P1;SDS_P2;PMS_P1;PMS_P2;Temp;Humidity;BMP_temperature;BMP_pressure;BME280_temperature;BME280_humidity;BME280_pressure;Samples;Min_cycle;Max_cycle;Signal;HPM_P1;HPM_P2
2022/12/14 00:00:47;;;;;;;24.80;10.65;;;-6.40;99.90;;;;;;5105731;28;20038;-56
2022/12/14 00:03:14;;;;;;;22.25;9.93;;;-6.40;99.90;;;;;;5087957;28;20036;-54
2022/12/14 00:05:40;;;;;;;20.35;10.27;;;-6.40;99.90;;;;;;5093535;28;20035;-56
2022/12/14 00:08:07;;;;;;;24.13;10.23;;;-6.40;99.90;;;;;;5107781;28;20039;-54
2022/12/14 00:10:34;;;;;;;28.85;11.98;;;-6.50;99.90;;;;;;5089721;28;20028;-56
2022/12/14 00:13:00;;;;;;;26.65;11.13;;;-6.50;99.90;;;;;;5108314;28;20015;-55
2022/12/14 00:15:25;;;;;;;14.95;7.70;;;-6.50;99.90;;;;;;5088624;28;20035;-55
2022/12/14 00:17:51;;;;;;;20.73;8.32;;;-6.60;99.90;;;;;;5107830;28;20032;-53
2022/12/14 00:20:16;;;;;;;22.80;9.90;;;-6.60;99.90;;;;;;5087468;28;20035;-56
2022/12/14 00:22:42;;;;;;;21.48;9.15;;;-6.60;99.90;;;;;;5094490;28;20032;-55
2022/12/14 00:25:08;;;;;;;20.88;8.93;;;-6.60;99.90;;;;;;5096664;28;20048;-56
2022/12/14 00:27:34;;;;;;;20.45;7.93;;;-6.70;99.90;;;;;;5106479;28;20580;-53
2022/12/14 00:29:59;;;;;;;20.42;8.95;;;-6.70;99.90;;;;;;5087681;28;20114;-57
2022/12/14 00:32:25;;;;;;;21.10;9.40;;;-6.80;99.90;;;;;;5085447;28;20081;-53
2022/12/14 00:34:50;;;;;;;17.75;8.43;;;-6.90;99.90;;;;;;5107146;28;20046;-56
2022/12/14 00:37:16;;;;;;;21.88;8.75;;;-6.90;99.90;;;;;;5085732;28;20473;-56
2022/12/14 00:39:41;;;;;;;25.37;11.47;;;-6.90;99.90;;;;;;5106702;28;20067;-52
2022/12/14 00:42:07;;;;;;;29.92;11.68;;;-6.90;99.90;;;;;;5085604;28;20051;-53
2022/12/14 00:44:32;;;;;;;28.13;10.97;;;-7.00;99.90;;;;;;5099084;28;20036;-55
2022/12/14 00:46:58;;;;;;;31.77;12.32;;;-7.00;99.90;;;;;;5086750;28;20044;-57
2022/12/14 00:49:24;;;;;;;21.80;9.77;;;-7.10;99.90;;;;;;5106406;28;20571;-57
2022/12/14 00:51:49;;;;;;;27.10;11.48;;;-7.10;99.90;;;;;;5085645;28;20064;-55
2022/12/14 00:54:15;;;;;;;33.60;11.83;;;-7.10;99.90;;;;;;5096513;28;20032;-53
2022/12/14 00:56:40;;;;;;;32.67;13.07;;;-7.10;99.90;;;;;;5091114;28;20028;-53
2022/12/14 00:59:06;;;;;;;24.90;11.13;;;-7.20;99.90;;;;;;5106342;28;20481;-52
2022/12/14 01:01:31;;;;;;;21.37;8.40;;;-7.20;99.90;;;;;;5085193;28;20111;-56
2022/12/14 01:06:42;;;;;;;26.80;9.67;;;-7.30;99.90;;;;;;5083948;28;20049;-57
2022/12/14 01:09:07;;;;;;;20.73;8.50;;;-7.30;99.90;;;;;;5086945;28;20480;-56
2022/12/14 01:11:33;;;;;;;21.13;8.27;;;-7.30;99.90;;;;;;5078702;28;20036;-57
2022/12/14 01:13:58;;;;;;;15.23;6.80;;;-7.30;99.90;;;;;;5105821;28;20043;-54
2022/12/14 01:16:24;;;;;;;18.73;7.50;;;-7.30;99.90;;;;;;5095928;28;20414;-59
2022/12/14 01:18:49;;;;;;;18.57;7.77;;;-7.30;99.90;;;;;;5086201;28;20212;-59
2022/12/14 01:21:18;;;;;;;13.13;6.83;;;-7.30;99.90;;;;;;5102227;28;20032;-59
2022/12/14 01:23:45;;;;;;;17.93;7.90;;;-7.30;99.90;;;;;;5085883;28;20036;-60
2022/12/14 01:26:12;;;;;;;18.80;7.67;;;-7.30;99.90;;;;;;5104510;28;20031;-59
2022/12/14 01:28:38;;;;;;;18.97;7.30;;;-7.30;99.90;;;;;;5085244;28;20510;-59
2022/12/14 01:31:12;;;;;;;24.50;9.17;;;-7.30;99.90;;;;;;5096581;28;20047;-59
2022/12/14 01:33:38;;;;;;;24.13;9.57;;;-7.40;99.90;;;;;;5097110;28;20024;-59
2022/12/14 01:36:06;;;;;;;21.40;9.07;;;-7.40;99.90;;;;;;5097026;28;20522;-60
2022/12/14 01:38:32;;;;;;;25.97;10.17;;;-7.40;99.90;;;;;;5086109;28;20024;-59
2022/12/14 01:40:58;;;;;;;20.17;8.80;;;-7.40;99.90;;;;;;5103303;28;20031;-59
2022/12/14 01:43:24;;;;;;;19.50;10.20;;;-7.40;99.90;;;;;;5106603;28;20016;-59
2022/12/14 01:45:54;;;;;;;24.63;10.63;;;-7.40;99.90;;;;;;5090589;28;20568;-58
2022/12/14 01:48:21;;;;;;;22.50;10.53;;;-7.40;99.90;;;;;;5102536;28;20020;-59
2022/12/14 01:50:46;;;;;;;23.17;9.80;;;-7.40;99.90;;;;;;5102566;28;20527;-58
2022/12/14 01:53:17;;;;;;;28.93;10.77;;;-7.40;99.90;;;;;;5103204;28;20027;-59
2022/12/14 01:55:48;;;;;;;18.30;8.00;;;-7.50;99.90;;;;;;5107231;28;20035;-59
2022/12/14 01:58:20;;;;;;;21.30;8.57;;;-7.50;99.90;;;;;;5088755;28;20063;-59
2022/12/14 02:00:47;;;;;;;19.07;8.20;;;-7.60;99.90;;;;;;5108586;28;20024;-60
2022/12/14 02:03:21;;;;;;;15.13;6.47;;;-7.60;99.90;;;;;;5089554;28;20028;-60
2022/12/14 02:05:52;;;;;;;27.07;9.27;;;-7.60;99.90;;;;;;5090008;28;20063;-60
2022/12/14 02:08:20;;;;;;;15.20;6.60;;;-7.70;99.90;;;;;;5072956;28;20032;-59
2022/12/14 02:10:47;;;;;;;16.53;7.50;;;-7.70;99.90;;;;;;5108695;28;20107;-60
2022/12/14 02:13:29;;;;;;;17.43;7.13;;;-7.70;99.90;;;;;;5089168;28;20607;-60
2022/12/14 02:15:55;;;;;;;14.93;7.77;;;-7.70;99.90;;;;;;5108720;28;20157;-60
2022/12/14 02:18:26;;;;;;;20.50;9.13;;;-7.80;99.90;;;;;;5090474;28;20118;-60
2022/12/14 02:21:13;;;;;;;23.13;10.17;;;-7.80;99.90;;;;;;5108456;28;20223;-60
2022/12/14 02:24:03;;;;;;;27.20;10.93;;;-7.80;99.90;;;;;;5078750;28;20053;-59
2022/12/14 02:26:59;;;;;;;20.73;8.23;;;-7.80;99.90;;;;;;5112304;28;20031;-60
2022/12/14 02:29:34;;;;;;;17.67;7.25;;;-7.80;99.90;;;;;;5095237;28;20028;-60
2022/12/14 02:32:21;;;;;;;21.52;9.23;;;-7.80;99.90;;;;;;5091944;28;20082;-60
2022/12/14 02:35:02;;;;;;;21.30;8.93;;;-7.80;99.90;;;;;;5085523;28;20035;-60
2022/12/14 02:37:44;;;;;;;15.47;7.57;;;-7.90;99.90;;;;;;5071708;28;20020;-60
2022/12/14 02:40:12;;;;;;;15.53;7.03;;;-7.90;99.90;;;;;;5089862;28;20027;-60
2022/12/14 02:42:47;;;;;;;16.50;7.57;;;-7.90;99.90;;;;;;5111224;28;20020;-60
2022/12/14 02:45:12;;;;;;;15.80;6.63;;;-8.00;99.90;;;;;;5088878;28;20032;-60
2022/12/14 02:48:10;;;;;;;18.03;6.83;;;-8.00;99.90;;;;;;5111253;28;20032;-60
2022/12/14 02:50:50;;;;;;;18.00;7.37;;;-8.00;99.90;;;;;;5110508;28;20236;-60
2022/12/14 02:53:29;;;;;;;13.53;6.20;;;-8.10;99.90;;;;;;5075485;28;20028;-59
2022/12/14 02:56:01;;;;;;;13.93;6.37;;;-8.10;99.90;;;;;;5110701;28;20035;-59
2022/12/14 02:58:30;;;;;;;16.47;7.43;;;-8.10;99.90;;;;;;5078822;28;20028;-59
2022/12/14 03:00:57;;;;;;;13.70;6.73;;;-8.00;99.90;;;;;;5111960;28;20114;-60
2022/12/14 03:03:22;;;;;;;15.60;8.70;;;-8.10;99.90;;;;;;5093678;28;20167;-60
2022/12/14 03:05:55;;;;;;;17.10;8.27;;;-8.10;99.90;;;;;;5096405;28;20206;-59
2022/12/14 03:08:22;;;;;;;18.03;7.07;;;-8.00;99.90;;;;;;5108864;28;20039;-59
2022/12/14 03:10:58;;;;;;;14.57;7.07;;;-8.10;99.90;;;;;;5111161;28;20096;-60
2022/12/14 03:13:26;;;;;;;;;;;-8.00;99.90;;;;;;5093349;28;20510;-60
2022/12/14 03:16:23;;;;;;;16.23;8.43;;;-8.00;99.90;;;;;;5110127;28;20287;-59
2022/12/14 03:19:00;;;;;;;19.40;8.75;;;-8.00;99.90;;;;;;5083731;28;20106;-60
2022/12/14 03:21:31;;;;;;;21.13;8.77;;;-8.00;99.90;;;;;;5090719;28;20484;-61
2022/12/14 03:23:59;;;;;;;17.00;8.73;;;-8.00;99.90;;;;;;5086419;28;20102;-60
2022/12/14 03:26:33;;;;;;;26.40;11.40;;;-8.00;99.90;;;;;;5111169;28;20160;-59
2022/12/14 03:29:09;;;;;;;22.50;9.37;;;-8.00;99.90;;;;;;5087148;28;20069;-60
2022/12/14 03:31:56;;;;;;;21.07;9.30;;;-8.00;99.90;;;;;;5070786;28;20087;-60
2022/12/14 03:34:28;;;;;;;25.93;10.47;;;-8.00;99.90;;;;;;5096192;28;20070;-60
2022/12/14 03:37:05;;;;;;;16.10;8.50;;;-8.10;99.90;;;;;;5070293;28;20036;-59
2022/12/14 03:39:33;;;;;;;21.40;9.50;;;-8.10;99.90;;;;;;5081022;28;20024;-60
2022/12/14 03:42:17;;;;;;;26.83;11.00;;;-8.10;99.90;;;;;;5109225;28;20027;-60
2022/12/14 03:45:02;;;;;;;20.97;9.87;;;-8.10;99.90;;;;;;5083719;28;20028;-60
2022/12/14 03:47:51;;;;;;;23.40;8.93;;;-8.10;99.90;;;;;;5070325;28;20033;-60
2022/12/14 03:50:22;;;;;;;22.50;9.80;;;-8.10;99.90;;;;;;5088527;28;20059;-60
2022/12/14 03:52:52;;;;;;;16.10;8.50;;;-8.10;99.90;;;;;;5070347;28;20028;-60
2022/12/14 03:55:55;;;;;;;17.63;7.47;;;-8.10;99.90;;;;;;5108369;28;20032;-59
2022/12/14 03:58:27;;;;;;;22.43;10.40;;;-8.10;99.90;;;;;;5075667;28;20032;-60
2022/12/14 04:01:18;;;;;;;23.03;10.87;;;-8.10;99.90;;;;;;5110485;28;20023;-60
2022/12/14 04:04:04;;;;;;;20.20;9.20;;;-8.10;99.90;;;;;;5082145;28;20275;-60
2022/12/14 04:07:00;;;;;;;22.97;10.50;;;-8.10;99.90;;;;;;5089050;28;20124;-60
2022/12/14 04:09:53;;;;;;;20.33;9.32;;;-8.10;99.90;;;;;;5093790;28;20031;-60
2022/12/14 04:21:28;;;;;;;;;;;-8.10;99.90;;;;;;5073427;28;20165;-60
2022/12/14 04:27:08;;;;;;;22.70;10.90;;;-8.10;99.90;;;;;;5095770;28;20113;-60
2022/12/14 04:29:55;;;;;;;20.27;10.47;;;-8.10;99.90;;;;;;5069674;28;20378;-60
2022/12/14 04:32:44;;;;;;;25.53;10.17;;;-8.00;99.90;;;;;;5088704;28;20537;-60
2022/12/14 04:35:34;;;;;;;25.00;11.10;;;-8.00;99.90;;;;;;5069457;28;20548;-60
2022/12/14 04:38:02;;;;;;;20.53;9.70;;;-8.00;99.90;;;;;;5083706;28;20032;-61
2022/12/14 04:40:52;;;;;;;18.37;9.33;;;-8.00;99.90;;;;;;5109738;28;20023;-60
2022/12/14 04:43:22;;;;;;;19.27;9.40;;;-8.00;99.90;;;;;;5086313;28;20028;-59
2022/12/14 04:45:53;;;;;;;22.50;10.30;;;-8.00;99.90;;;;;;5069417;28;20472;-60
2022/12/14 04:48:36;;;;;;;22.10;8.77;;;-8.00;99.90;;;;;;5085855;28;20111;-60
2022/12/14 04:51:23;;;;;;;23.83;11.20;;;-8.00;99.90;;;;;;5067897;28;20037;-60
2022/12/14 04:53:54;;;;;;;22.17;8.60;;;-8.00;99.90;;;;;;5069291;28;20020;-60
2022/12/14 04:56:37;;;;;;;24.57;9.97;;;-8.00;99.90;;;;;;5071725;28;20041;-55
2022/12/14 04:59:02;;;;;;;23.90;9.27;;;-8.00;99.90;;;;;;5095613;28;20035;-56
2022/12/14 05:02:15;;;;;;;24.13;9.97;;;-8.10;99.90;;;;;;5088997;28;20024;-56
2022/12/14 05:04:55;;;;;;;19.60;8.20;;;-8.10;99.90;;;;;;5060923;28;20922;-55
2022/12/14 05:07:52;;;;;;;22.03;9.13;;;-8.10;99.90;;;;;;5102923;28;20375;-53
2022/12/14 05:10:23;;;;;;;26.30;11.63;;;-8.10;99.90;;;;;;5083338;28;20030;-57
2022/12/14 05:13:02;;;;;;;23.57;10.40;;;-8.20;99.90;;;;;;5082730;28;20476;-57
2022/12/14 05:15:38;;;;;;;20.50;9.87;;;-8.20;99.90;;;;;;5109498;28;20031;-57
2022/12/14 05:18:04;;;;;;;;;;;-8.20;99.90;;;;;;5071776;28;20093;-57
2022/12/14 05:20:29;;;;;;;21.27;9.80;;;-8.20;99.90;;;;;;5109436;28;20577;-57
2022/12/14 05:22:55;;;;;;;30.93;11.27;;;-8.20;99.90;;;;;;5088406;28;20162;-56
2022/12/14 05:25:20;;;;;;;23.07;10.10;;;-8.20;99.90;;;;;;5108775;28;20104;-55
2022/12/14 05:27:46;;;;;;;22.83;10.77;;;-8.20;99.90;;;;;;5089600;28;20039;-55
2022/12/14 05:30:12;;;;;;;23.03;10.03;;;-8.20;99.90;;;;;;5107006;28;20039;-54
2022/12/14 05:32:38;;;;;;;21.57;10.23;;;-8.20;99.90;;;;;;5089482;28;20070;-54
2022/12/14 05:35:05;;;;;;;17.87;8.93;;;-8.20;99.90;;;;;;5087871;28;20024;-57
2022/12/14 05:37:30;;;;;;;23.27;10.17;;;-8.20;99.90;;;;;;5108127;28;20031;-54
2022/12/14 05:39:56;;;;;;;30.53;12.13;;;-8.20;99.90;;;;;;5087765;28;20048;-54
2022/12/14 05:42:21;;;;;;;25.10;10.70;;;-8.20;99.90;;;;;;5108358;28;20039;-56
2022/12/14 05:44:47;;;;;;;23.60;9.57;;;-8.20;99.90;;;;;;5089779;28;20446;-58
2022/12/14 05:47:13;;;;;;;26.83;11.50;;;-8.20;99.90;;;;;;5107438;28;20043;-58
2022/12/14 05:49:38;;;;;;;17.37;8.83;;;-8.20;99.90;;;;;;5085273;28;20040;-55
2022/12/14 05:52:04;;;;;;;29.47;12.00;;;-8.20;99.90;;;;;;5108348;28;20087;-57
2022/12/14 05:54:30;;;;;;;21.13;9.47;;;-8.30;99.90;;;;;;5086919;28;20032;-55
2022/12/14 05:56:55;;;;;;;27.60;11.13;;;-8.20;99.90;;;;;;5093248;28;20028;-57
2022/12/14 05:59:21;;;;;;;28.07;11.10;;;-8.20;99.90;;;;;;5089775;28;20028;-58
2022/12/14 06:01:48;;;;;;;18.50;8.80;;;-8.30;99.90;;;;;;5093004;28;20038;-56
2022/12/14 06:04:14;;;;;;;26.33;10.70;;;-8.30;99.90;;;;;;5098184;28;20507;-56
2022/12/14 06:06:40;;;;;;;20.93;9.73;;;-8.20;99.90;;;;;;5108586;28;20047;-57
2022/12/14 06:09:12;;;;;;;25.47;9.03;;;-8.20;99.90;;;;;;5091532;28;20024;-58
2022/12/14 06:11:40;;;;;;;22.27;10.57;;;-8.20;99.90;;;;;;5072510;28;20024;-59
2022/12/14 06:14:07;;;;;;;18.10;7.43;;;-8.30;99.90;;;;;;5110082;28;20035;-58
2022/12/14 06:16:33;;;;;;;19.93;8.77;;;-8.30;99.90;;;;;;5092874;28;20143;-57
2022/12/14 06:19:00;;;;;;;23.50;10.63;;;-8.30;99.90;;;;;;5108630;28;20690;-58
2022/12/14 06:21:28;;;;;;;21.77;10.43;;;-8.30;99.90;;;;;;5090724;28;20028;-59
2022/12/14 06:23:55;;;;;;;27.67;12.73;;;-8.30;99.90;;;;;;5109497;28;20024;-59
2022/12/14 06:26:22;;;;;;;30.40;13.50;;;-8.30;99.90;;;;;;5089241;28;20074;-57
2022/12/14 06:28:48;;;;;;;32.07;14.67;;;-8.30;99.90;;;;;;5111975;28;20028;-56
2022/12/14 06:31:16;;;;;;;24.60;12.17;;;-8.20;99.90;;;;;;5089349;28;20047;-59
2022/12/14 06:33:42;;;;;;;29.50;12.70;;;-8.20;99.90;;;;;;5112282;28;20031;-57
2022/12/14 06:36:21;;;;;;;30.73;12.43;;;-8.20;99.90;;;;;;5089013;28;20654;-58
2022/12/14 06:38:46;;;;;;;21.77;12.03;;;-8.20;99.90;;;;;;5112262;28;20189;-57
2022/12/14 06:41:12;;;;;;;22.93;10.20;;;-8.20;99.90;;;;;;5089418;28;20103;-58
2022/12/14 06:43:38;;;;;;;21.47;10.17;;;-8.20;99.90;;;;;;5086772;28;20496;-59
2022/12/14 06:46:12;;;;;;;22.67;10.83;;;-8.20;99.90;;;;;;5094662;28;20093;-57
2022/12/14 06:48:38;;;;;;;24.33;10.47;;;-8.20;99.90;;;;;;5089107;28;20036;-59
2022/12/14 06:51:05;;;;;;;21.63;9.27;;;-8.30;99.90;;;;;;5110537;28;20487;-58
2022/12/14 06:53:30;;;;;;;23.83;10.73;;;-8.30;99.90;;;;;;5089223;28;20085;-59
2022/12/14 06:56:11;;;;;;;21.70;9.13;;;-8.30;99.90;;;;;;5091100;28;20024;-58
2022/12/14 06:58:37;;;;;;;20.60;9.83;;;-8.30;99.90;;;;;;5086092;28;20425;-56
2022/12/14 07:01:12;;;;;;;19.53;8.73;;;-8.40;99.90;;;;;;5110185;28;20076;-56
2022/12/14 07:03:38;;;;;;;30.98;13.98;;;-8.30;99.90;;;;;;5087598;28;20118;-59
2022/12/14 07:06:05;;;;;;;22.33;9.47;;;-8.30;99.90;;;;;;5107079;28;20503;-57
2022/12/14 07:08:33;;;;;;;26.20;11.37;;;-8.30;99.90;;;;;;5088755;28;20130;-58
2022/12/14 07:11:03;;;;;;;24.47;11.60;;;-8.30;99.90;;;;;;5109352;28;20019;-55
2022/12/14 07:13:29;;;;;;;20.03;10.77;;;-8.20;99.90;;;;;;5088645;28;20088;-54
2022/12/14 07:15:55;;;;;;;24.00;10.70;;;-8.20;99.90;;;;;;5109784;28;20040;-56
2022/12/14 07:18:21;;;;;;;30.83;13.67;;;-8.20;99.90;;;;;;5088653;28;20024;-58
2022/12/14 07:21:00;;;;;;;27.73;12.20;;;-8.20;99.90;;;;;;5109838;28;20027;-55
2022/12/14 07:23:28;;;;;;;25.07;11.83;;;-8.20;99.90;;;;;;5085685;28;20065;-58
2022/12/14 07:26:00;;;;;;;32.30;15.17;;;-8.20;99.90;;;;;;5109840;28;20693;-58
2022/12/14 07:28:27;;;;;;;37.37;14.47;;;-8.20;99.90;;;;;;5085829;28;20033;-57
2022/12/14 07:30:57;;;;;;;29.77;14.67;;;-8.10;99.90;;;;;;5108240;28;20031;-55
2022/12/14 07:33:23;;;;;;;36.23;14.43;;;-8.10;99.90;;;;;;5088267;28;20024;-57
2022/12/14 07:35:49;;;;;;;33.93;15.13;;;-8.10;99.90;;;;;;5109342;28;20497;-58
2022/12/14 07:38:15;;;;;;;30.17;14.10;;;-8.10;99.90;;;;;;5088268;28;20032;-55
2022/12/14 07:40:41;;;;;;;32.77;15.63;;;-8.00;99.90;;;;;;5109691;28;20030;-56
2022/12/14 07:43:07;;;;;;;34.47;13.80;;;-8.00;99.90;;;;;;5088372;28;20032;-54
2022/12/14 07:45:32;;;;;;;29.17;13.73;;;-8.00;99.90;;;;;;5109018;28;20424;-57
2022/12/14 07:47:58;;;;;;;36.60;15.80;;;-8.00;99.90;;;;;;5087977;28;20035;-56
2022/12/14 07:50:23;;;;;;;29.47;12.77;;;-8.00;99.90;;;;;;5109059;28;20031;-57
2022/12/14 07:52:48;;;;;;;25.10;12.40;;;-7.90;99.90;;;;;;5088241;28;20028;-52
2022/12/14 07:55:14;;;;;;;31.03;14.20;;;-7.90;99.90;;;;;;5108816;28;20519;-56
2022/12/14 07:57:40;;;;;;;23.13;10.50;;;-7.90;99.90;;;;;;5088319;28;20377;-54
2022/12/14 08:00:06;;;;;;;27.13;10.90;;;-7.90;99.90;;;;;;5108735;28;20119;-55
2022/12/14 08:02:31;;;;;;;25.63;11.97;;;-7.90;99.90;;;;;;5096590;28;20034;-57
2022/12/14 08:04:57;;;;;;;22.23;10.10;;;-7.80;99.90;;;;;;5086780;28;20054;-55
2022/12/14 08:07:22;;;;;;;23.17;11.00;;;-7.80;99.90;;;;;;5107215;28;20571;-58
2022/12/14 08:09:47;;;;;;;18.53;8.63;;;-7.80;99.90;;;;;;5089759;28;20102;-56
2022/12/14 08:12:13;;;;;;;21.63;9.80;;;-7.70;99.90;;;;;;5105317;28;20027;-53
2022/12/14 08:14:38;;;;;;;22.93;10.27;;;-7.70;99.90;;;;;;5109593;28;20023;-54
2022/12/14 08:17:04;;;;;;;34.90;13.53;;;-7.60;99.90;;;;;;5093875;28;20118;-59
2022/12/14 08:19:29;;;;;;;26.73;12.63;;;-7.50;99.90;;;;;;5107746;28;20034;-58
2022/12/14 08:21:55;;;;;;;31.17;13.67;;;-7.40;99.90;;;;;;5092323;28;20041;-56
2022/12/14 08:24:20;;;;;;;27.83;13.77;;;-7.30;99.90;;;;;;5103487;28;20040;-57
2022/12/14 08:26:46;;;;;;;27.13;12.87;;;-7.20;99.90;;;;;;5090680;28;20163;-57
2022/12/14 08:29:13;;;;;;;36.23;15.13;;;-7.10;99.90;;;;;;5109117;28;20503;-55
2022/12/14 08:31:39;;;;;;;24.77;12.63;;;-7.00;99.90;;;;;;5089909;28;20483;-57
2022/12/14 08:34:04;;;;;;;29.47;16.20;;;-7.00;99.90;;;;;;5108940;28;20042;-53
2022/12/14 08:36:32;;;;;;;35.53;16.53;;;-6.90;99.90;;;;;;5088715;28;20020;-58
2022/12/14 08:39:00;;;;;;;29.73;12.97;;;-6.80;99.90;;;;;;5109326;28;20116;-56
2022/12/14 08:41:27;;;;;;;30.87;13.03;;;-6.70;99.90;;;;;;5087683;28;20046;-56
2022/12/14 08:43:55;;;;;;;24.63;11.30;;;-6.60;99.90;;;;;;5108971;28;20072;-58
2022/12/14 08:46:21;;;;;;;32.92;13.18;;;-6.50;99.90;;;;;;5086804;28;20057;-55
2022/12/14 08:48:49;;;;;;;28.43;12.77;;;-6.30;99.90;;;;;;5109093;28;20030;-55
2022/12/14 08:51:16;;;;;;;33.30;14.18;;;-6.30;99.90;;;;;;5086741;28;20470;-58
2022/12/14 08:53:42;;;;;;;27.65;12.57;;;-6.20;99.90;;;;;;5106622;28;20042;-55
2022/12/14 08:56:10;;;;;;;28.27;12.25;;;-6.10;99.90;;;;;;5088578;28;20059;-58
2022/12/14 08:58:37;;;;;;;27.17;13.90;;;-6.10;99.90;;;;;;5087192;28;20085;-57
2022/12/14 09:01:24;;;;;;;33.65;14.00;;;-6.00;99.90;;;;;;5108233;28;20032;-58
2022/12/14 09:03:50;;;;;;;26.25;13.05;;;-5.90;99.90;;;;;;5067389;28;20110;-55
2022/12/14 09:06:22;;;;;;;28.45;13.75;;;-5.70;99.90;;;;;;5100273;28;20027;-56
2022/12/14 09:08:48;;;;;;;31.48;15.50;;;-5.60;99.90;;;;;;5108685;28;20051;-53
2022/12/14 09:11:16;;;;;;;28.38;14.93;;;-5.40;99.90;;;;;;5088653;28;20454;-55
2022/12/14 09:13:42;;;;;;;26.83;12.60;;;-5.30;99.90;;;;;;5086027;28;20035;-56
2022/12/14 09:16:10;;;;;;;22.02;11.73;;;-5.20;99.90;;;;;;5107860;28;20047;-61
2022/12/14 09:18:36;;;;;;;26.42;13.00;;;-5.10;99.90;;;;;;5086446;28;20548;-57
2022/12/14 09:21:02;;;;;;;76.35;26.80;;;-4.90;99.90;;;;;;5107506;28;20118;-60
2022/12/14 09:23:29;;;;;;;28.65;14.50;;;-4.80;99.90;;;;;;5085576;28;20032;-59
2022/12/14 09:26:18;;;;;;;30.25;14.38;;;-4.70;99.90;;;;;;5107343;28;20050;-58
2022/12/14 09:28:49;;;;;;;28.27;13.65;;;-4.60;99.90;;;;;;5085631;28;20032;-58
2022/12/14 09:31:16;;;;;;;198.95;51.67;;;-4.50;99.90;;;;;;5083645;28;20047;-61
2022/12/14 09:33:41;;;;;;;83.75;31.27;;;-4.40;99.90;;;;;;5085629;28;20043;-61
2022/12/14 09:36:13;;;;;;;58.15;26.88;;;-4.40;99.90;;;;;;5087372;28;20080;-59
2022/12/14 09:38:39;;;;;;;40.45;19.67;;;-4.40;99.90;;;;;;5085542;28;20031;-59
2022/12/14 09:41:18;;;;;;;37.95;16.15;;;-4.30;99.90;;;;;;5094453;28;20499;-60
2022/12/14 09:43:52;;;;;;;33.72;14.30;;;-4.30;99.90;;;;;;5085685;28;20286;-59
2022/12/14 09:46:43;;;;;;;29.48;13.98;;;-4.20;99.90;;;;;;5065770;28;20086;-59
2022/12/14 09:49:22;;;;;;;28.40;13.80;;;-4.30;99.90;;;;;;5067109;28;20078;-59
2022/12/14 09:51:48;;;;;;;26.90;12.80;;;-4.20;99.90;;;;;;5073193;28;20016;-58
2022/12/14 09:54:21;;;;;;;25.15;12.95;;;-4.20;99.90;;;;;;5106185;28;20035;-59
2022/12/14 09:56:46;;;;;;;24.13;11.73;;;-4.20;99.90;;;;;;5072414;28;20139;-59
2022/12/14 09:59:16;;;;;;;31.25;14.20;;;-4.20;99.90;;;;;;5107874;28;20585;-59
2022/12/14 10:02:00;;;;;;;28.08;13.98;;;-4.10;99.90;;;;;;5088386;28;20027;-58
2022/12/14 10:04:40;;;;;;;26.30;15.07;;;-4.10;99.90;;;;;;5106351;28;20491;-59
2022/12/14 10:07:22;;;;;;;24.48;11.60;;;-4.10;99.90;;;;;;5091843;28;20067;-59
2022/12/14 10:10:04;;;;;;;23.13;11.02;;;-4.00;99.90;;;;;;5107447;28;20019;-59
2022/12/14 10:12:44;;;;;;;25.15;13.27;;;-3.90;99.90;;;;;;5084944;28;20028;-58
2022/12/14 10:15:26;;;;;;;23.48;11.80;;;-3.90;99.90;;;;;;5067168;28;20044;-60
2022/12/14 10:18:05;;;;;;;24.02;10.73;;;-3.90;99.90;;;;;;5078201;28;20055;-60
2022/12/14 10:20:53;;;;;;;30.17;12.68;;;-3.90;99.90;;;;;;5066876;28;20101;-60
2022/12/14 10:23:22;;;;;;;28.10;12.95;;;-3.80;99.90;;;;;;5081730;28;20127;-59
2022/12/14 10:25:53;;;;;;;25.67;13.90;;;-3.80;99.90;;;;;;5107083;28;20088;-59
2022/12/14 10:28:35;;;;;;;27.45;13.13;;;-3.80;99.90;;;;;;5081929;28;20036;-60
2022/12/14 10:31:02;;;;;;;28.50;14.05;;;-3.80;99.90;;;;;;5066851;28;20032;-60
2022/12/14 10:33:30;;;;;;;27.67;13.13;;;-3.70;99.90;;;;;;5086804;28;20219;-60
2022/12/14 10:36:06;;;;;;;29.02;15.20;;;-3.70;99.90;;;;;;5106622;28;20427;-59
2022/12/14 10:38:57;;;;;;;30.90;14.55;;;-3.60;99.90;;;;;;5083420;28;20051;-59
2022/12/14 10:41:30;;;;;;;29.00;13.40;;;-3.60;99.90;;;;;;5065805;28;20029;-60
2022/12/14 10:44:18;;;;;;;23.80;12.05;;;-3.60;99.90;;;;;;5107279;28;20080;-61
2022/12/14 10:46:49;;;;;;;23.90;12.90;;;-3.50;99.90;;;;;;5073740;28;20032;-59
2022/12/14 10:49:35;;;;;;;28.35;12.98;;;-3.50;99.90;;;;;;5111004;28;20019;-61
2022/12/14 10:52:07;;;;;;;28.40;13.95;;;-3.50;99.90;;;;;;5079462;28;20032;-59
2022/12/14 10:54:43;;;;;;;29.67;14.52;;;-3.50;99.90;;;;;;5110678;28;20047;-59
2022/12/14 10:57:15;;;;;;;32.55;16.20;;;-3.40;99.90;;;;;;5082079;28;20023;-56
2022/12/14 10:59:42;;;;;;;30.35;14.95;;;-3.50;99.90;;;;;;5108246;28;20024;-60
2022/12/14 11:02:14;;;;;;;25.10;14.20;;;-3.40;99.90;;;;;;5110965;28;20023;-56
2022/12/14 11:05:00;;;;;;;24.33;13.38;;;-3.40;99.90;;;;;;5070009;28;20757;-59
2022/12/14 11:07:37;;;;;;;25.27;13.45;;;-3.40;99.90;;;;;;5090535;28;20038;-59
2022/12/14 11:10:26;;;;;;;26.40;13.93;;;-3.40;99.90;;;;;;5070671;28;20028;-58
2022/12/14 11:13:12;;;;;;;34.35;14.73;;;-3.30;99.90;;;;;;5090547;28;20495;-58
2022/12/14 11:15:49;;;;;;;28.42;14.73;;;-3.40;99.90;;;;;;5085215;28;20019;-58
2022/12/14 11:18:15;;;;;;;27.65;14.23;;;-3.40;99.90;;;;;;5070070;28;20037;-57
2022/12/14 11:20:53;;;;;;;31.23;14.80;;;-3.40;99.90;;;;;;5107009;28;20027;-55
2022/12/14 11:23:19;;;;;;;28.50;13.15;;;-3.30;99.90;;;;;;5090285;28;20043;-58
2022/12/14 11:25:47;;;;;;;25.83;13.75;;;-3.30;99.90;;;;;;5107538;28;20044;-59
2022/12/14 11:28:28;;;;;;;29.70;14.20;;;-3.20;99.90;;;;;;5090262;28;20407;-58
2022/12/14 11:30:58;;;;;;;29.83;15.32;;;-3.20;99.90;;;;;;5089319;28;20024;-59
2022/12/14 11:33:38;;;;;;;27.35;13.77;;;-3.20;99.90;;;;;;5089913;28;20488;-59
2022/12/14 11:36:05;;;;;;;28.08;13.43;;;-3.10;99.90;;;;;;5082662;28;20040;-59
2022/12/14 11:38:31;;;;;;;28.98;14.93;;;-3.00;99.90;;;;;;5109431;28;20035;-59
2022/12/14 11:40:58;;;;;;;31.95;15.25;;;-2.90;99.90;;;;;;5094710;28;20039;-59
2022/12/14 11:43:33;;;;;;;27.88;13.60;;;-2.90;99.90;;;;;;5108863;28;20443;-59
2022/12/14 11:46:00;;;;;;;26.48;14.45;;;-2.90;99.90;;;;;;5094767;28;20096;-60
2022/12/14 11:48:27;;;;;;;23.92;11.90;;;-2.80;99.90;;;;;;5109917;28;20503;-55
2022/12/14 11:51:06;;;;;;;30.77;13.65;;;-2.80;99.90;;;;;;5092453;28;20372;-58
2022/12/14 11:53:32;;;;;;;29.95;14.38;;;-2.70;99.90;;;;;;5108614;28;20036;-58
2022/12/14 11:56:00;;;;;;;28.48;13.48;;;-2.80;99.90;;;;;;5094241;28;20027;-58
2022/12/14 11:58:30;;;;;;;24.58;12.95;;;-2.70;99.90;;;;;;5108876;28;20084;-61
2022/12/14 12:01:03;;;;;;;31.20;14.75;;;-2.80;99.90;;;;;;5093723;28;20038;-56
2022/12/14 12:03:36;;;;;;;32.17;14.80;;;-2.70;99.90;;;;;;5109555;28;20541;-59
2022/12/14 12:06:09;;;;;;;30.20;13.68;;;-2.80;99.90;;;;;;5075554;28;20094;-59
2022/12/14 12:08:37;;;;;;;26.08;12.85;;;-2.70;99.90;;;;;;5109612;28;20035;-57
2022/12/14 12:11:14;;;;;;;34.70;17.13;;;-2.70;99.90;;;;;;5095449;28;20027;-58
2022/12/14 12:13:43;;;;;;;29.98;15.27;;;-2.70;99.90;;;;;;5068802;28;20094;-59
2022/12/14 12:16:09;;;;;;;25.67;14.82;;;-2.60;99.90;;;;;;5105868;28;20133;-57
2022/12/14 12:18:43;;;;;;;32.33;15.95;;;-2.70;99.90;;;;;;5089000;28;20127;-57
2022/12/14 12:21:28;;;;;;;30.77;15.45;;;-2.70;99.90;;;;;;5084677;28;20069;-58
2022/12/14 12:24:06;;;;;;;30.50;14.95;;;-2.80;99.90;;;;;;5099787;28;20028;-56
2022/12/14 12:26:38;;;;;;;33.67;18.42;;;-2.70;99.90;;;;;;5098893;28;20097;-59
2022/12/14 12:29:16;;;;;;;40.00;19.30;;;-2.80;99.90;;;;;;5085572;28;20044;-58
2022/12/14 12:31:54;;;;;;;31.23;15.60;;;-2.80;99.90;;;;;;5108263;28;20031;-58
2022/12/14 12:34:30;;;;;;;39.05;17.85;;;-2.80;99.90;;;;;;5108116;28;20102;-57
2022/12/14 12:36:59;;;;;;;26.60;13.52;;;-2.80;99.90;;;;;;5069252;28;20033;-59
2022/12/14 12:39:26;;;;;;;31.33;16.42;;;-2.80;99.90;;;;;;5109800;28;20034;-59
2022/12/14 12:42:21;;;;;;;26.50;12.35;;;-2.80;99.90;;;;;;5088940;28;20119;-58
2022/12/14 12:44:57;;;;;;;27.65;13.20;;;-2.90;99.90;;;;;;5109721;28;20628;-59
2022/12/14 12:47:28;;;;;;;31.63;13.80;;;-2.80;99.90;;;;;;5077530;28;20039;-59
2022/12/14 12:50:02;;;;;;;28.60;14.20;;;-2.90;99.90;;;;;;5109518;28;20583;-59
2022/12/14 12:52:33;;;;;;;26.60;12.65;;;-2.90;99.90;;;;;;5079066;28;20039;-59
2022/12/14 12:55:05;;;;;;;32.08;15.45;;;-2.90;99.90;;;;;;5109512;28;20197;-59
2022/12/14 12:57:39;;;;;;;29.13;12.95;;;-3.00;99.90;;;;;;5093525;28;20020;-60
2022/12/14 13:00:06;;;;;;;26.65;12.98;;;-3.10;99.90;;;;;;5109745;28;20035;-59
2022/12/14 13:02:41;;;;;;;31.20;14.98;;;-3.10;99.90;;;;;;5094234;28;20027;-59
2022/12/14 13:05:13;;;;;;;25.48;11.68;;;-3.20;99.90;;;;;;5100133;28;20031;-60
2022/12/14 13:07:43;;;;;;;30.58;15.85;;;-3.30;99.90;;;;;;5094065;28;20459;-60